TimeEDT,TemperatureF,Dew PointF,Humidity,Sea Level PressureIn,VisibilityMPH,Wind Direction,Wind SpeedMPH,Gust SpeedMPH,PrecipitationIn,Events,Conditions,WindDirDegrees,DateUTC
12:53 AM,75.9,73.9,94,30.13,10.0,NE,4.6,-,N/A,,Clear,40,2013-07-30 04:53:00
1:53 AM,75.9,75.0,97,30.12,9.0,ENE,6.9,-,N/A,,Clear,70,2013-07-30 05:53:00
2:53 AM,75.9,75.0,97,30.11,9.0,East,5.8,-,N/A,,Clear,80,2013-07-30 06:53:00
3:53 AM,75.9,75.0,97,30.11,8.0,NE,3.5,-,N/A,,Clear,50,2013-07-30 07:53:00
4:53 AM,75.9,75.0,97,30.09,8.0,NNE,3.5,-,N/A,,Clear,30,2013-07-30 08:53:00
5:53 AM,77.0,75.9,96,30.10,8.0,NE,3.5,-,N/A,,Clear,40,2013-07-30 09:53:00
6:53 AM,75.9,75.0,97,30.12,7.0,ENE,3.5,-,N/A,,Clear,70,2013-07-30 10:53:00
7:53 AM,79.0,77.0,94,30.12,7.0,NE,4.6,-,N/A,,Clear,40,2013-07-30 11:53:00
8:53 AM,82.0,78.1,88,30.14,7.0,ENE,5.8,-,N/A,,Clear,60,2013-07-30 12:53:00
9:53 AM,86.0,79.0,79,30.15,8.0,ENE,8.1,-,N/A,,Partly Cloudy,60,2013-07-30 13:53:00
10:53 AM,88.0,78.1,72,30.15,9.0,ENE,9.2,-,N/A,,Scattered Clouds,70,2013-07-30 14:53:00
11:53 AM,87.1,75.9,69,30.15,10.0,Variable,5.8,-,N/A,,Mostly Cloudy,0,2013-07-30 15:53:00
12:53 PM,93.0,75.0,56,30.13,10.0,ENE,6.9,-,N/A,,Clear,60,2013-07-30 16:53:00
1:45 PM,84.2,80.6,89,30.12,8.0,West,5.8,-,0.00,Thunderstorm,Thunderstorm,280,2013-07-30 17:45:00
1:53 PM,84.0,78.1,82,30.12,9.0,West,11.5,-,0.00,Thunderstorm,Thunderstorm,260,2013-07-30 17:53:00
2:23 PM,78.8,75.2,89,30.14,2.0,South,12.7,26.5,0.10,Rain-Thunderstorm,Heavy Thunderstorms and Rain,170,2013-07-30 18:23:00
2:41 PM,75.2,73.4,94,30.13,5.0,NW,8.1,-,0.25,Rain-Thunderstorm,Light Thunderstorms and Rain,310,2013-07-30 18:41:00
2:53 PM,78.1,75.9,93,30.13,7.0,Calm,Calm,-,0.26,Rain-Thunderstorm,Light Thunderstorms and Rain,0,2013-07-30 18:53:00
3:50 PM,80.6,75.2,84,30.12,9.0,Calm,Calm,-,0.00,,Partly Cloudy,0,2013-07-30 19:50:00
3:53 PM,81.0,75.9,85,30.12,9.0,NNW,3.5,-,0.00,,Partly Cloudy,330,2013-07-30 19:53:00
4:53 PM,82.0,75.0,79,30.09,10.0,NW,4.6,-,N/A,,Clear,310,2013-07-30 20:53:00
5:53 PM,84.0,75.9,76,30.09,10.0,Calm,Calm,-,N/A,Thunderstorm,Clear,0,2013-07-30 21:53:00
6:39 PM,77.0,73.4,89,30.09,6.0,ESE,17.3,27.6,0.00,Rain-Thunderstorm,Light Rain,120,2013-07-30 22:39:00
6:53 PM,77.0,73.9,90,30.08,4.0,ESE,6.9,19.6,0.00,Rain-Thunderstorm,Light Rain,110,2013-07-30 22:53:00
7:08 PM,77.0,73.4,89,30.08,10.0,NNE,4.6,-,0.00,,Mostly Cloudy,20,2013-07-30 23:08:00
7:53 PM,78.1,75.0,90,30.09,9.0,Calm,Calm,-,0.01,,Scattered Clouds,0,2013-07-30 23:53:00
8:53 PM,77.0,75.9,96,30.11,10.0,Calm,Calm,-,N/A,,Clear,0,2013-07-31 00:53:00
9:53 PM,78.1,77.0,96,30.12,10.0,NE,3.5,-,N/A,,Clear,40,2013-07-31 01:53:00
10:53 PM,78.1,75.9,93,30.12,10.0,Calm,Calm,-,N/A,,Clear,0,2013-07-31 02:53:00
11:53 PM,78.1,75.0,90,30.12,10.0,Calm,Calm,-,N/A,,Clear,0,2013-07-31 03:53:00